Time;durP1;ratioP1;P1;durP2;ratioP2;P2;SDS_P1;SDS_P2;PMS_P1;PMS_P2;Temp;Humidity;BMP_temperature;BMP_pressure;BME280_temperature;BME280_humidity;BME280_pressure;Samples;Min_cycle;Max_cycle;Signal;HPM_P1;HPM_P2
2023/04/02 00:01:00;;;;;;;5.65;3.20;;;;;;;9.01;100.00;98919.91;12200472;19;20007;-81
2023/04/02 00:05:18;;;;;;;7.47;4.00;;;;;;;9.02;100.00;98918.81;12195515;19;20010;-81
2023/04/02 00:09:26;;;;;;;5.70;3.70;;;;;;;9.02;100.00;98924.31;12178409;19;20014;-81
2023/04/02 00:13:30;;;;;;;5.70;3.22;;;;;;;9.05;100.00;98931.19;12189759;19;20020;-81
2023/04/02 00:17:32;;;;;;;7.90;3.53;;;;;;;9.05;100.00;98932.03;12178722;19;20007;-81
2023/04/02 00:21:36;;;;;;;6.05;3.67;;;;;;;9.06;100.00;98933.66;12198132;19;20089;-81
2023/04/02 00:25:44;;;;;;;5.38;3.45;;;;;;;9.04;100.00;98937.75;12199958;19;20763;-82
2023/04/02 00:29:51;;;;;;;6.35;3.33;;;;;;;9.01;100.00;98941.88;12176647;19;20190;-81
2023/04/02 00:33:54;;;;;;;6.65;2.92;;;;;;;8.99;100.00;98948.72;12197656;19;20034;-81
2023/04/02 00:37:56;;;;;;;;;;;;;;;8.95;100.00;98948.41;12199124;19;20006;-80
2023/04/02 00:42:04;;;;;;;6.45;2.95;;;;;;;8.94;100.00;98951.41;12178522;19;19978;-82
2023/04/02 00:46:18;;;;;;;5.85;3.40;;;;;;;8.93;100.00;98950.59;12199481;19;20878;-82
2023/04/02 00:50:29;;;;;;;5.80;3.25;;;;;;;8.93;100.00;98945.09;12197091;19;20011;-81
2023/04/02 00:54:37;;;;;;;6.97;3.40;;;;;;;8.91;100.00;98952.75;12172152;19;20007;-80
2023/04/02 00:58:39;;;;;;;7.47;3.63;;;;;;;8.90;100.00;98951.94;12197020;19;20013;-81
2023/04/02 01:02:41;;;;;;;6.38;3.72;;;;;;;8.90;100.00;98953.88;12180453;19;20002;-81
2023/04/02 01:06:44;;;;;;;7.40;3.70;;;;;;;8.88;100.00;98956.84;12199415;19;20006;-82
2023/04/02 01:11:03;;;;;;;8.38;3.92;;;;;;;8.91;100.00;98958.25;12196725;19;20011;-81
2023/04/02 01:15:20;;;;;;;6.57;3.83;;;;;;;8.93;100.00;98961.59;12174439;19;20011;-82
2023/04/02 01:19:59;;;;;;;7.60;4.13;;;;;;;8.90;100.00;98954.69;12196648;19;20006;-81
2023/04/02 01:24:13;;;;;;;7.85;3.60;;;;;;;8.93;100.00;98964.34;12176044;19;20035;-81
2023/04/02 01:28:18;;;;;;;;;;;;;;;8.96;100.00;98973.97;12198906;19;20012;-82
2023/04/02 01:32:22;;;;;;;6.88;3.75;;;;;;;8.98;100.00;98975.34;12199093;19;19931;-82
2023/04/02 01:36:40;;;;;;;6.97;4.35;;;;;;;8.99;100.00;98978.97;12173876;19;20007;-81
2023/04/02 01:40:52;;;;;;;10.45;4.55;;;;;;;9.01;100.00;98985.84;12211055;19;20014;-81
2023/04/02 01:45:03;;;;;;;8.27;3.63;;;;;;;9.02;100.00;98992.19;12190769;19;20007;-82
2023/04/02 01:49:17;;;;;;;6.10;3.92;;;;;;;9.00;100.00;99003.41;12257179;19;20010;-81
2023/04/02 01:53:23;;;;;;;7.00;3.78;;;;;;;9.02;100.00;99006.75;12245204;19;19998;-81
2023/04/02 01:57:26;;;;;;;5.75;3.30;;;;;;;9.04;100.00;99009.22;12184203;19;20007;-81
2023/04/02 02:01:50;;;;;;;7.95;3.85;;;;;;;9.02;100.00;99014.97;12209368;19;20078;-82
2023/04/02 02:05:53;;;;;;;6.35;3.60;;;;;;;8.99;100.00;99021.00;12188249;19;20023;-82
2023/04/02 02:09:57;;;;;;;7.70;3.83;;;;;;;8.98;100.00;99015.75;12218360;19;20376;-81
2023/04/02 02:14:04;;;;;;;5.22;3.35;;;;;;;8.99;100.00;99012.75;12258784;19;20038;-81
2023/04/02 02:18:10;;;;;;;7.30;3.80;;;;;;;9.01;100.00;99027.06;12255945;19;20006;-80
2023/04/02 02:22:26;;;;;;;6.15;3.47;;;;;;;9.03;100.00;99033.13;12253711;19;20395;-81
2023/04/02 02:26:28;;;;;;;7.10;3.65;;;;;;;9.00;100.00;99030.88;12202789;19;20014;-81
2023/04/02 02:30:37;;;;;;;7.72;3.97;;;;;;;8.97;100.00;99042.41;12204453;19;20003;-81
2023/04/02 02:34:48;;;;;;;7.25;3.50;;;;;;;8.97;100.00;99044.31;12210622;19;20014;-81
2023/04/02 02:38:53;;;;;;;9.13;3.63;;;;;;;8.97;100.00;99038.81;12193499;19;20030;-81
2023/04/02 02:43:05;;;;;;;7.78;3.83;;;;;;;8.98;100.00;99043.22;12208712;19;20046;-82
2023/04/02 02:47:18;;;;;;;8.35;3.67;;;;;;;8.98;100.00;99051.47;12206323;19;20021;-82
2023/04/02 02:51:25;;;;;;;;;;;;;;;8.92;100.00;99053.31;12184144;19;20036;-81
2023/04/02 02:55:35;;;;;;;7.53;3.85;;;;;;;8.94;100.00;99056.66;12195024;19;19914;-81
2023/04/02 02:59:45;;;;;;;8.93;2.90;;;;;;;8.93;100.00;99062.41;12183118;19;20003;-81
2023/04/02 03:03:48;;;;;;;;;;;;;;;8.90;100.00;99070.09;12203259;19;20014;-81
2023/04/02 03:07:52;;;;;;;6.30;2.92;;;;;;;8.90;100.00;99067.34;12204382;19;19911;-80
2023/04/02 03:12:07;;;;;;;7.00;2.92;;;;;;;8.89;100.00;99084.91;12180896;19;20010;-82
2023/04/02 03:16:22;;;;;;;4.37;2.70;;;;;;;8.87;100.00;99084.34;12202799;19;20018;-82
2023/04/02 03:20:39;;;;;;;4.78;2.80;;;;;;;8.87;100.00;99089.00;12201260;19;20007;-81
2023/04/02 03:24:56;;;;;;;6.63;3.00;;;;;;;8.89;100.00;99097.81;12177517;19;20031;-81
2023/04/02 03:29:05;;;;;;;5.93;2.65;;;;;;;8.92;100.00;99102.78;12203241;19;20020;-81
2023/04/02 03:33:27;;;;;;;5.75;3.10;;;;;;;8.94;100.00;99103.38;12180317;19;20011;-81
2023/04/02 03:37:45;;;;;;;;;;;;;;;8.91;100.00;99106.63;12202862;19;20029;-81
2023/04/02 03:42:04;;;;;;;6.28;2.67;;;;;;;8.94;100.00;99113.53;12185765;19;19908;-82
2023/04/02 03:46:23;;;;;;;9.13;3.88;;;;;;;8.96;100.00;99125.09;12199091;19;20019;-81
2023/04/02 03:50:40;;;;;;;10.98;3.67;;;;;;;8.93;100.00;99126.44;12202060;19;20010;-80
2023/04/02 03:54:43;;;;;;;11.80;3.35;;;;;;;8.91;100.00;99136.84;12177050;19;20006;-81
2023/04/02 03:59:10;;;;;;;9.57;4.00;;;;;;;8.93;100.00;99142.09;12198770;19;20011;-80
2023/04/02 04:03:15;;;;;;;9.68;3.88;;;;;;;8.90;100.00;99154.44;12173227;19;20006;-81
2023/04/02 04:07:31;;;;;;;7.85;3.80;;;;;;;8.85;100.00;99159.84;12201561;19;20010;-81
2023/04/02 04:11:36;;;;;;;9.77;4.15;;;;;;;8.81;100.00;99164.19;12178288;19;20002;-81
2023/04/02 04:15:44;;;;;;;7.40;4.32;;;;;;;8.84;100.00;99166.44;12202902;19;20010;-81
2023/04/02 04:19:56;;;;;;;8.30;4.47;;;;;;;8.80;100.00;99163.34;12201429;19;20002;-81
2023/04/02 04:24:06;;;;;;;11.02;4.82;;;;;;;8.81;100.00;99169.69;12178743;19;20015;-81
2023/04/02 04:28:20;;;;;;;8.27;4.65;;;;;;;8.82;100.00;99174.91;12202355;19;20462;-82
2023/04/02 04:32:34;;;;;;;11.15;4.68;;;;;;;8.79;100.00;99189.16;12202357;19;20017;-82
2023/04/02 04:36:53;;;;;;;9.52;4.93;;;;;;;8.79;100.00;99185.59;12186340;19;20007;-80
2023/04/02 04:41:11;;;;;;;14.63;5.82;;;;;;;8.75;100.00;99196.25;12201083;19;20643;-81
2023/04/02 04:45:35;;;;;;;11.65;5.15;;;;;;;8.73;100.00;99203.91;12177175;19;20026;-81
2023/04/02 04:49:48;;;;;;;12.15;5.35;;;;;;;8.75;100.00;99212.75;12202609;19;20351;-80
2023/04/02 04:53:53;;;;;;;10.10;5.00;;;;;;;8.77;100.00;99215.22;12168670;19;20014;-80
2023/04/02 04:58:21;;;;;;;10.07;5.72;;;;;;;8.78;100.00;99223.22;12182662;19;22278;-82
2023/04/02 05:02:37;;;;;;;12.10;6.38;;;;;;;8.81;100.00;99224.66;12204685;19;20085;-81
2023/04/02 05:06:44;;;;;;;10.98;5.90;;;;;;;8.82;100.00;99237.28;12176458;19;20021;-81
2023/04/02 05:11:10;;;;;;;10.60;5.78;;;;;;;8.86;100.00;99238.44;12205272;19;20018;-80
2023/04/02 05:15:34;;;;;;;14.40;5.80;;;;;;;8.89;100.00;99241.53;12191048;19;20510;-80
2023/04/02 05:19:57;;;;;;;10.50;4.65;;;;;;;8.93;100.00;99254.75;12216082;19;20006;-81
2023/04/02 05:24:28;;;;;;;13.25;5.90;;;;;;;8.96;100.00;99257.00;12190126;19;20078;-80
2023/04/02 05:28:56;;;;;;;12.18;5.80;;;;;;;8.98;100.00;99252.88;12214304;19;20022;-80
2023/04/02 05:33:20;;;;;;;9.30;5.28;;;;;;;9.03;100.00;99263.97;12188963;19;20473;-80
2023/04/02 05:37:28;;;;;;;11.40;5.82;;;;;;;9.07;100.00;99267.88;12211084;19;20026;-80
2023/04/02 05:41:41;;;;;;;9.85;5.35;;;;;;;9.16;100.00;99272.94;12192071;19;20086;-80
2023/04/02 05:45:51;;;;;;;11.05;5.47;;;;;;;9.22;100.00;99278.25;12207870;19;20372;-80
2023/04/02 05:50:04;;;;;;;11.85;5.72;;;;;;;9.32;100.00;99283.06;12210630;19;20069;-81
2023/04/02 05:54:22;;;;;;;11.07;5.00;;;;;;;9.45;100.00;99296.41;12187905;19;20006;-81
2023/04/02 05:58:43;;;;;;;9.18;5.43;;;;;;;9.55;100.00;99301.25;12210259;19;20014;-80
2023/04/02 06:03:06;;;;;;;9.82;4.78;;;;;;;9.67;100.00;99306.63;12188164;19;20007;-80
2023/04/02 06:07:13;;;;;;;7.70;4.75;;;;;;;9.76;100.00;99310.59;12210671;19;20519;-80
2023/04/02 06:11:40;;;;;;;9.68;5.45;;;;;;;9.86;100.00;99324.44;12212176;19;20002;-80
2023/04/02 06:15:47;;;;;;;8.93;4.97;;;;;;;9.98;100.00;99324.31;12189359;19;20005;-81
2023/04/02 06:20:04;;;;;;;10.17;4.63;;;;;;;10.11;100.00;99334.09;12212930;19;20964;-81
2023/04/02 06:24:11;;;;;;;8.23;4.63;;;;;;;10.18;100.00;99340.22;12186490;19;20002;-80
2023/04/02 06:28:18;;;;;;;8.77;4.20;;;;;;;10.27;100.00;99356.06;12211933;19;20082;-82
2023/04/02 06:32:26;;;;;;;8.02;5.18;;;;;;;10.35;100.00;99354.78;12210466;19;20448;-82
2023/04/02 06:36:28;;;;;;;7.13;4.43;;;;;;;10.43;100.00;99359.78;12191576;19;20038;-82
2023/04/02 06:40:41;;;;;;;7.15;3.72;;;;;;;10.50;100.00;99370.63;12212087;19;20019;-81
2023/04/02 06:44:54;;;;;;;7.80;4.07;;;;;;;10.54;100.00;99376.44;12242168;19;20081;-81
2023/04/02 06:49:39;;;;;;;7.30;4.25;;;;;;;10.57;100.00;99387.75;12235352;19;20008;-80
2023/04/02 06:53:46;;;;;;;7.03;3.85;;;;;;;10.65;100.00;99395.56;12189380;19;20007;-81
2023/04/02 06:57:49;;;;;;;6.88;4.55;;;;;;;10.73;100.00;99403.34;12210360;19;20003;-81
2023/04/02 07:01:57;;;;;;;7.32;4.28;;;;;;;10.73;100.00;99406.09;12210458;19;20010;-81
2023/04/02 07:06:01;;;;;;;6.38;4.25;;;;;;;10.75;100.00;99416.03;12188466;19;20078;-81
2023/04/02 07:10:07;;;;;;;7.63;4.03;;;;;;;10.73;100.00;99422.63;12205935;19;20058;-81
2023/04/02 07:14:11;;;;;;;10.23;4.95;;;;;;;10.80;100.00;99433.47;12211993;19;20003;-82
2023/04/02 07:18:31;;;;;;;8.35;4.70;;;;;;;10.90;100.00;99436.31;12186996;19;20074;-80
2023/04/02 07:22:35;;;;;;;9.40;4.70;;;;;;;10.97;100.00;99440.78;12205714;19;20007;-82
2023/04/02 07:26:37;;;;;;;8.80;4.93;;;;;;;11.12;100.00;99454.69;12185966;19;20014;-81
2023/04/02 07:30:40;;;;;;;6.72;4.28;;;;;;;11.17;100.00;99460.25;12206410;19;20014;-82
2023/04/02 07:34:42;;;;;;;9.40;4.68;;;;;;;11.18;100.00;99475.72;12203562;19;20473;-81
2023/04/02 07:38:44;;;;;;;7.50;4.50;;;;;;;11.21;100.00;99479.88;12186757;19;20511;-81
2023/04/02 07:42:45;;;;;;;11.40;4.67;;;;;;;11.33;100.00;99484.16;12206227;19;20002;-81
2023/04/02 07:46:47;;;;;;;10.40;4.72;;;;;;;11.39;100.00;99488.59;12208714;19;20010;-80
2023/04/02 07:50:50;;;;;;;7.33;4.30;;;;;;;11.47;100.00;99494.72;12189269;19;20022;-81
2023/04/02 07:54:51;;;;;;;7.83;4.43;;;;;;;11.55;100.00;99492.31;12206051;19;20031;-81
2023/04/02 07:58:53;;;;;;;8.35;4.53;;;;;;;11.61;100.00;99501.47;12210872;19;20247;-82
2023/04/02 08:02:55;;;;;;;8.75;4.43;;;;;;;11.71;100.00;99514.50;12183900;19;20033;-81
2023/04/02 08:06:57;;;;;;;8.82;4.35;;;;;;;11.74;100.00;99517.56;12207204;19;20505;-83
2023/04/02 08:10:59;;;;;;;6.68;4.22;;;;;;;11.74;100.00;99525.84;12205270;19;20014;-83
2023/04/02 08:15:04;;;;;;;;;;;;;;;11.66;100.00;99536.53;12172704;19;20015;-83
2023/04/02 08:19:07;;;;;;;4.70;2.97;;;;;;;11.17;100.00;99543.00;12213676;19;19914;-83
2023/04/02 08:27:29;;;;;;;6.97;3.40;;;;;;;9.96;100.00;99558.50;12169525;19;20021;-84
2023/04/02 08:31:33;;;;;;;3.23;1.43;;;;;;;9.69;100.00;99571.28;12208710;19;20507;-81
2023/04/02 08:35:38;;;;;;;2.35;1.20;;;;;;;9.58;100.00;99578.56;12178434;19;20009;-83
2023/04/02 08:39:40;;;;;;;0.45;0.40;;;;;;;9.34;100.00;99588.88;12204766;19;20014;-81
2023/04/02 08:44:12;;;;;;;0.50;0.40;;;;;;;9.08;100.00;99593.88;12202177;19;20007;-80
2023/04/02 08:48:15;;;;;;;0.50;0.40;;;;;;;8.83;100.00;99601.59;12184202;19;20017;-83
2023/04/02 08:52:32;;;;;;;0.45;0.40;;;;;;;8.51;100.00;99618.53;12202809;19;20007;-82
2023/04/02 08:56:42;;;;;;;1.67;0.47;;;;;;;8.46;100.00;99626.66;12186241;19;20018;-83
2023/04/02 09:00:45;;;;;;;0.45;0.40;;;;;;;8.39;100.00;99637.75;12209576;19;20006;-81
2023/04/02 09:04:47;;;;;;;0.95;0.40;;;;;;;8.34;100.00;99653.25;12250312;19;19999;-80
2023/04/02 09:08:52;;;;;;;1.37;0.57;;;;;;;8.31;100.00;99645.50;12247015;19;20018;-81
2023/04/02 09:12:57;;;;;;;1.65;0.40;;;;;;;8.18;100.00;99660.31;12230356;19;20650;-81
2023/04/02 09:17:01;;;;;;;0.35;0.30;;;;;;;8.15;100.00;99675.31;12208199;19;20097;-82
2023/04/02 09:21:27;;;;;;;2.42;0.50;;;;;;;8.20;100.00;99675.44;12182555;19;20076;-81
2023/04/02 09:25:30;;;;;;;2.05;0.60;;;;;;;8.32;100.00;99691.91;12198572;19;20495;-81
2023/04/02 09:29:43;;;;;;;1.90;0.82;;;;;;;8.37;100.00;99682.97;12177689;19;20013;-81
2023/04/02 09:33:47;;;;;;;6.32;3.45;;;;;;;8.53;100.00;99700.66;12197505;19;20003;-81
2023/04/02 09:38:15;;;;;;;6.63;2.78;;;;;;;8.70;100.00;99704.34;12195252;19;20015;-81
2023/04/02 09:42:38;;;;;;;4.82;2.42;;;;;;;8.93;100.00;99714.50;12177642;19;20503;-81
2023/04/02 09:47:02;;;;;;;2.83;1.73;;;;;;;8.86;100.00;99725.63;12197714;19;20014;-83
2023/04/02 09:51:17;;;;;;;11.77;5.45;;;;;;;8.87;100.00;99731.94;12181037;19;20370;-81
2023/04/02 09:55:27;;;;;;;36.03;16.27;;;;;;;8.82;100.00;99732.66;12200135;19;20031;-81
2023/04/02 09:59:29;;;;;;;14.32;6.28;;;;;;;8.92;100.00;99739.44;12179965;19;20007;-83
2023/04/02 10:03:33;;;;;;;;;;;;;;;8.87;100.00;99752.00;12210253;19;20025;-81
2023/04/02 10:07:43;;;;;;;40.97;16.83;;;;;;;8.60;100.00;99765.41;12209776;19;19915;-82
2023/04/02 10:11:48;;;;;;;5.40;2.58;;;;;;;8.73;100.00;99774.47;12181111;19;20006;-81
2023/04/02 10:16:17;;;;;;;19.60;9.20;;;;;;;8.57;100.00;99781.53;12205071;19;20046;-82
2023/04/02 10:20:24;;;;;;;5.85;3.22;;;;;;;8.49;100.00;99795.59;12207164;19;20489;-82
2023/04/02 10:24:27;;;;;;;12.05;8.75;;;;;;;8.52;100.00;99797.88;12180652;19;20543;-81
2023/04/02 10:28:39;;;;;;;9.40;6.60;;;;;;;8.35;100.00;99797.69;12206124;19;20471;-80
2023/04/02 10:32:56;;;;;;;3.08;2.45;;;;;;;8.33;100.00;99810.78;12187199;19;20031;-81
2023/04/02 10:37:07;;;;;;;2.38;1.38;;;;;;;8.41;100.00;99822.31;12206114;19;20010;-82
2023/04/02 10:41:10;;;;;;;1.63;1.13;;;;;;;8.55;100.00;99820.19;12211157;19;20018;-82
2023/04/02 10:45:42;;;;;;;3.33;1.23;;;;;;;8.71;100.00;99824.16;12183321;19;21649;-82
2023/04/02 10:50:06;;;;;;;2.22;1.20;;;;;;;9.17;100.00;99829.91;12206142;19;20010;-82
2023/04/02 10:54:26;;;;;;;1.17;1.02;;;;;;;9.27;100.00;99830.97;12187689;19;20006;-81
2023/04/02 10:58:33;;;;;;;3.20;1.60;;;;;;;9.57;100.00;99847.28;12208281;19;20654;-81
2023/04/02 11:02:40;;;;;;;1.73;1.00;;;;;;;9.75;100.00;99856.47;12187161;19;20003;-84
2023/04/02 11:07:06;;;;;;;2.17;0.80;;;;;;;9.85;100.00;99861.38;12207235;19;20003;-83
2023/04/02 11:11:25;;;;;;;1.58;1.00;;;;;;;9.80;100.00;99873.09;12203576;19;20013;-82
2023/04/02 11:15:29;;;;;;;3.17;1.83;;;;;;;9.72;100.00;99870.72;12184510;19;20014;-79
2023/04/02 11:19:33;;;;;;;2.05;1.23;;;;;;;9.49;100.00;99874.38;12208808;19;20010;-80
2023/04/02 11:23:55;;;;;;;2.60;1.40;;;;;;;9.40;100.00;99886.78;12178630;19;20093;-81
2023/04/02 11:28:32;;;;;;;1.38;1.08;;;;;;;9.70;100.00;99890.22;12208363;19;20047;-83
2023/04/02 11:32:39;;;;;;;2.03;1.20;;;;;;;9.59;100.00;99902.91;12183139;19;20011;-83
2023/04/02 11:36:51;;;;;;;2.55;1.50;;;;;;;9.34;100.00;99913.34;12203576;19;20832;-83
2023/04/02 11:40:54;;;;;;;2.03;1.35;;;;;;;9.10;100.00;99910.59;12210013;19;20102;-83
2023/04/02 11:45:25;;;;;;;6.75;3.08;;;;;;;8.88;100.00;99928.72;12184640;19;20015;-81
2023/04/02 11:49:35;;;;;;;10.77;4.57;;;;;;;8.72;100.00;99935.75;12205326;19;20010;-83
2023/04/02 11:53:41;;;;;;;20.33;7.60;;;;;;;8.71;100.00;99944.19;12188913;19;20014;-83
2023/04/02 11:58:25;;;;;;;38.70;14.57;;;;;;;8.63;100.00;99956.38;12229870;19;20015;-84
2023/04/02 12:02:37;;;;;;;8.98;3.55;;;;;;;8.63;100.00;99957.19;12260226;19;20290;-84
2023/04/02 12:07:05;;;;;;;35.27;11.80;;;;;;;8.54;100.00;99957.78;12195922;19;20006;-84
2023/04/02 12:11:07;;;;;;;28.55;10.45;;;;;;;8.49;100.00;99972.19;12210204;19;20003;-85
2023/04/02 12:15:43;;;;;;;18.88;9.77;;;;;;;8.46;100.00;99975.41;12187808;19;20007;-84
2023/04/02 12:19:47;;;;;;;5.07;2.80;;;;;;;8.44;100.00;99981.13;12207180;19;20002;-84
2023/04/02 12:23:53;;;;;;;3.63;1.80;;;;;;;8.46;100.00;99986.38;12182617;19;20065;-82
2023/04/02 12:28:19;;;;;;;3.50;2.10;;;;;;;8.41;100.00;100002.72;12207490;19;20352;-83
2023/04/02 12:32:26;;;;;;;2.78;1.85;;;;;;;8.32;100.00;99999.41;12205440;19;20002;-82
2023/04/02 12:36:30;;;;;;;3.67;1.73;;;;;;;8.16;100.00;100000.03;12182577;19;20006;-82
2023/04/02 12:40:33;;;;;;;;;;;;;;;7.90;100.00;100013.00;12204974;19;20030;-82
2023/04/02 12:44:35;;;;;;;2.30;1.40;;;;;;;7.93;100.00;100017.19;12182305;19;19927;-83
2023/04/02 12:48:38;;;;;;;9.20;4.68;;;;;;;7.87;100.00;100023.59;12204516;19;20111;-83
2023/04/02 12:52:45;;;;;;;6.03;3.60;;;;;;;8.06;100.00;100029.91;12208580;19;20021;-82
2023/04/02 12:56:49;;;;;;;3.85;2.03;;;;;;;8.10;100.00;100029.25;12181219;19;20138;-83
2023/04/02 13:01:17;;;;;;;4.40;2.40;;;;;;;8.22;100.00;100032.91;12207354;19;20002;-83
2023/04/02 13:05:41;;;;;;;3.47;1.85;;;;;;;8.25;100.00;100041.75;12203284;19;20463;-81
2023/04/02 13:09:54;;;;;;;3.38;1.60;;;;;;;8.20;100.00;100046.00;12181988;19;20014;-80
2023/04/02 13:14:01;;;;;;;7.53;3.30;;;;;;;8.07;100.00;100048.06;12200021;19;20030;-81
2023/04/02 13:18:17;;;;;;;6.68;4.57;;;;;;;7.86;100.00;100050.19;12184227;19;20010;-83
2023/04/02 13:22:30;;;;;;;3.45;2.30;;;;;;;7.70;100.00;100058.97;12207307;19;20010;-83
2023/04/02 13:26:32;;;;;;;3.95;2.80;;;;;;;7.61;100.00;100063.06;12191164;19;20095;-80
2023/04/02 13:30:34;;;;;;;5.20;2.67;;;;;;;7.53;100.00;100061.47;12214417;19;19999;-82
2023/04/02 13:34:36;;;;;;;4.72;2.67;;;;;;;7.43;100.00;100067.44;12216068;19;20034;-83
2023/04/02 13:38:39;;;;;;;2.50;1.33;;;;;;;7.54;100.00;100087.81;12208990;19;20035;-83
2023/04/02 13:42:43;;;;;;;5.70;2.03;;;;;;;7.57;100.00;100076.41;12258558;19;20291;-84
2023/04/02 13:46:46;;;;;;;3.95;2.50;;;;;;;7.23;100.00;100085.94;12267588;19;20560;-82
2023/04/02 13:50:47;;;;;;;5.43;2.40;;;;;;;7.52;100.00;100092.66;12225650;19;20050;-79
2023/04/02 13:54:57;;;;;;;5.43;2.65;;;;;;;7.86;100.00;100104.22;12243402;19;20006;-80
2023/04/02 13:59:00;;;;;;;3.83;2.55;;;;;;;7.94;100.00;100103.91;12229372;19;20010;-81
2023/04/02 14:03:06;;;;;;;4.32;2.60;;;;;;;7.94;100.00;100110.28;12198864;19;20010;-81
2023/04/02 14:07:45;;;;;;;6.85;3.42;;;;;;;7.91;100.00;100118.94;12211270;19;20003;-82
2023/04/02 14:12:09;;;;;;;5.65;2.50;;;;;;;7.81;100.00;100129.56;12207521;19;20543;-81
2023/04/02 14:16:37;;;;;;;4.65;2.35;;;;;;;7.61;100.00;100137.97;12207428;19;20022;-81
2023/04/02 14:20:54;;;;;;;6.15;2.88;;;;;;;7.39;100.00;100142.13;12188927;19;20042;-82
2023/04/02 14:25:20;;;;;;;7.15;3.05;;;;;;;7.41;100.00;100151.00;12206130;19;20018;-81
2023/04/02 14:29:30;;;;;;;5.18;2.95;;;;;;;7.34;100.00;100155.66;12209563;19;20007;-82
2023/04/02 14:33:47;;;;;;;5.47;3.08;;;;;;;7.39;100.00;100162.16;12183060;19;20082;-82
2023/04/02 14:37:59;;;;;;;6.05;3.05;;;;;;;7.35;100.00;100158.19;12207243;19;20021;-81
2023/04/02 14:42:18;;;;;;;5.18;3.00;;;;;;;7.12;100.00;100161.47;12185378;19;20014;-82
2023/04/02 14:46:26;;;;;;;6.88;3.70;;;;;;;7.12;100.00;100168.88;12203261;19;20546;-80
2023/04/02 14:50:36;;;;;;;5.65;3.17;;;;;;;7.15;100.00;100174.75;12186587;19;20478;-79
2023/04/02 14:55:03;;;;;;;6.70;3.33;;;;;;;7.00;100.00;100165.97;12205049;19;20676;-79
2023/04/02 14:59:10;;;;;;;5.75;3.50;;;;;;;7.15;100.00;100185.69;12205563;19;20383;-79
2023/04/02 15:03:20;;;;;;;6.45;3.22;;;;;;;7.07;100.00;100194.16;12190535;19;20090;-82
2023/04/02 15:07:32;;;;;;;5.95;3.22;;;;;;;7.04;100.00;100197.34;12203985;19;20010;-79
2023/04/02 15:11:42;;;;;;;5.47;3.28;;;;;;;6.89;100.00;100208.56;12193887;19;20006;-79
2023/04/02 15:16:18;;;;;;;5.35;3.05;;;;;;;6.83;100.00;100204.78;12242524;19;20009;-79
2023/04/02 15:20:20;;;;;;;6.13;3.92;;;;;;;6.94;100.00;100206.03;12268243;19;20066;-82
2023/04/02 15:24:37;;;;;;;13.10;7.37;;;;;;;6.74;100.00;100216.22;12212356;19;20034;-79
2023/04/02 15:28:54;;;;;;;18.83;10.82;;;;;;;6.59;100.00;100230.97;12208344;19;20003;-79
2023/04/02 15:33:22;;;;;;;9.73;6.28;;;;;;;6.54;100.00;100222.59;12182091;19;20010;-79
2023/04/02 15:37:34;;;;;;;11.07;6.90;;;;;;;6.59;100.00;100225.50;12203297;19;20018;-79
2023/04/02 15:42:00;;;;;;;8.23;4.50;;;;;;;6.53;100.00;100228.25;12183454;19;20017;-80
2023/04/02 15:46:18;;;;;;;15.15;7.43;;;;;;;6.34;100.00;100229.97;12205964;19;20034;-79
2023/04/02 15:50:48;;;;;;;11.82;6.18;;;;;;;6.33;100.00;100242.81;12206460;19;20011;-80
2023/04/02 15:55:21;;;;;;;14.88;7.47;;;;;;;6.30;100.00;100254.16;12195606;19;20010;-79
2023/04/02 15:59:38;;;;;;;18.90;8.13;;;;;;;6.31;100.00;100266.00;12201839;19;20491;-79
2023/04/02 16:04:02;;;;;;;23.70;11.65;;;;;;;6.23;100.00;100263.44;12183888;19;20002;-80
2023/04/02 16:08:10;;;;;;;15.43;7.40;;;;;;;6.15;100.00;100269.97;12206247;19;20010;-80
2023/04/02 16:12:16;;;;;;;11.48;7.13;;;;;;;6.22;100.00;100278.19;12186874;19;20498;-79
2023/04/02 16:16:24;;;;;;;14.88;7.40;;;;;;;6.44;100.00;100285.13;12203058;19;20003;-80
2023/04/02 16:20:31;;;;;;;9.32;5.68;;;;;;;6.39;100.00;100291.25;12204687;19;20104;-80
2023/04/02 16:24:33;;;;;;;25.75;11.30;;;;;;;6.37;100.00;100295.25;12206553;19;20003;-80
2023/04/02 16:28:58;;;;;;;19.88;7.68;;;;;;;6.29;100.00;100304.50;12246459;19;20009;-79
2023/04/02 16:33:24;;;;;;;12.50;6.03;;;;;;;6.33;100.00;100305.75;12226613;19;20021;-79
2023/04/02 16:37:45;;;;;;;7.82;4.22;;;;;;;6.38;100.00;100318.81;12255738;19;20494;-80
2023/04/02 16:42:10;;;;;;;13.77;6.35;;;;;;;6.40;100.00;100324.94;12229763;19;20039;-79
2023/04/02 16:46:50;;;;;;;9.73;5.32;;;;;;;6.44;100.00;100330.84;12251052;19;20030;-79
2023/04/02 16:51:01;;;;;;;10.85;5.25;;;;;;;6.44;100.00;100348.09;12238339;19;20012;-80
2023/04/02 16:55:38;;;;;;;19.52;8.93;;;;;;;6.33;100.00;100351.44;12262281;19;20007;-80
2023/04/02 16:59:50;;;;;;;7.72;4.90;;;;;;;6.20;100.00;100363.22;12217671;19;20013;-79
2023/04/02 17:04:14;;;;;;;19.10;8.02;;;;;;;6.12;100.00;100364.25;12222402;19;20391;-79
2023/04/02 17:08:26;;;;;;;12.82;6.63;;;;;;;5.96;100.00;100382.97;12207251;19;20006;-80
2023/04/02 17:12:38;;;;;;;7.63;4.65;;;;;;;5.90;100.00;100385.44;12185936;19;20077;-79
2023/04/02 17:16:50;;;;;;;9.83;3.80;;;;;;;5.85;100.00;100406.22;12206778;19;20024;-79
2023/04/02 17:20:52;;;;;;;6.28;3.45;;;;;;;5.69;100.00;100410.16;12184556;19;20258;-79
2023/04/02 17:25:00;;;;;;;5.38;3.28;;;;;;;5.72;100.00;100421.53;12204775;19;20446;-79
2023/04/02 17:29:07;;;;;;;7.13;2.72;;;;;;;5.69;100.00;100432.88;12204812;19;20114;-79
2023/04/02 17:33:15;;;;;;;11.30;5.40;;;;;;;5.68;100.00;100433.06;12179947;19;20602;-78
2023/04/02 17:37:26;;;;;;;11.13;5.10;;;;;;;5.62;100.00;100442.09;12200651;19;20014;-79
2023/04/02 17:41:35;;;;;;;7.60;4.00;;;;;;;5.51;99.70;100446.25;12199610;19;20011;-79
2023/04/02 17:45:51;;;;;;;5.05;3.00;;;;;;;5.51;100.00;100451.72;12200629;19;20344;-78
2023/04/02 17:50:02;;;;;;;5.05;2.83;;;;;;;5.45;98.79;100455.25;12217406;19;20017;-79
2023/04/02 17:54:16;;;;;;;6.07;3.00;;;;;;;5.52;100.00;100464.31;12180373;19;20058;-79
2023/04/02 17:58:35;;;;;;;6.63;3.50;;;;;;;5.48;100.00;100483.03;12200509;19;20024;-79
2023/04/02 18:02:57;;;;;;;14.75;5.85;;;;;;;5.46;100.00;100492.47;12181188;19;20014;-80
2023/04/02 18:07:11;;;;;;;8.73;4.07;;;;;;;5.41;97.53;100501.28;12198951;19;20016;-80
2023/04/02 18:11:46;;;;;;;7.28;2.92;;;;;;;5.34;97.20;100508.56;12202185;19;20010;-80
2023/04/02 18:15:55;;;;;;;5.22;3.10;;;;;;;5.31;95.35;100516.31;12182135;19;20034;-80
2023/04/02 18:20:18;;;;;;;19.30;8.25;;;;;;;5.30;97.76;100523.69;12201773;19;20026;-79
2023/04/02 18:24:55;;;;;;;13.55;6.90;;;;;;;5.28;97.65;100528.50;12188827;19;20003;-79
2023/04/02 18:29:29;;;;;;;6.68;4.70;;;;;;;5.25;95.91;100531.63;12210664;19;20586;-79
2023/04/02 18:33:51;;;;;;;4.47;2.92;;;;;;;5.19;94.12;100546.06;12187468;19;20014;-80
2023/04/02 18:38:17;;;;;;;6.13;2.72;;;;;;;5.19;93.79;100557.00;12220983;19;20007;-79
2023/04/02 18:42:22;;;;;;;4.82;2.40;;;;;;;5.16;93.97;100557.41;12195350;19;20003;-79
2023/04/02 18:46:41;;;;;;;8.63;2.35;;;;;;;5.09;91.92;100567.44;12210083;19;20532;-80
2023/04/02 18:50:46;;;;;;;3.80;2.50;;;;;;;5.14;94.40;100581.31;12189636;19;20086;-79
2023/04/02 18:54:54;;;;;;;3.75;2.03;;;;;;;5.20;95.50;100589.59;12207031;19;20071;-81
2023/04/02 18:59:08;;;;;;;3.97;2.22;;;;;;;5.23;93.86;100594.69;12210022;19;20031;-80
2023/04/02 19:03:31;;;;;;;4.80;3.05;;;;;;;5.22;95.09;100622.19;12184225;19;20010;-80
2023/04/02 19:07:39;;;;;;;3.13;2.10;;;;;;;5.20;94.73;100616.91;12206123;19;20079;-80
2023/04/02 19:11:41;;;;;;;3.65;2.63;;;;;;;5.14;93.60;100630.50;12187656;19;20078;-80
2023/04/02 19:16:07;;;;;;;4.28;2.33;;;;;;;5.14;94.40;100623.16;12202457;19;20016;-79
2023/04/02 19:20:09;;;;;;;4.22;1.88;;;;;;;5.18;95.15;100632.66;12201264;19;20603;-79
2023/04/02 19:24:26;;;;;;;5.85;2.50;;;;;;;5.23;96.17;100640.25;12183996;19;20019;-79
2023/04/02 19:28:48;;;;;;;4.28;2.40;;;;;;;5.22;95.71;100646.78;12206693;19;20003;-80
2023/04/02 19:33:08;;;;;;;4.53;2.00;;;;;;;5.11;94.22;100655.47;12179276;19;20456;-79